createdAt,value
2019-04-24T00:01:20.711Z,6.40
2019-04-24T00:06:39.394Z,6.10
2019-04-24T00:09:07.830Z,6.85
2019-04-24T00:17:16.942Z,5.17
2019-04-24T00:20:03.362Z,5.55
2019-04-24T00:22:14.573Z,6.00
2019-04-24T00:24:47.760Z,5.12
2019-04-24T00:27:13.806Z,6.03
2019-04-24T00:29:58.231Z,7.20
2019-04-24T00:32:13.567Z,6.35
2019-04-24T00:34:54.296Z,5.95
2019-04-24T00:39:34.888Z,8.33
2019-04-24T00:42:08.293Z,6.67
2019-04-24T00:44:48.443Z,7.00
2019-04-24T00:51:56.534Z,6.15
2019-04-24T00:59:36.832Z,7.03
2019-04-24T01:02:32.082Z,4.75
2019-04-24T01:08:06.797Z,7.00
2019-04-24T01:10:32.229Z,5.92
2019-04-24T01:13:09.218Z,6.62
2019-04-24T01:15:34.609Z,6.47
2019-04-24T01:17:52.022Z,6.80
2019-04-24T01:20:36.978Z,5.53
2019-04-24T01:25:39.245Z,8.17
2019-04-24T01:33:15.159Z,8.00
2019-04-24T01:36:09.234Z,5.37
2019-04-24T01:38:34.216Z,5.93
2019-04-24T01:41:14.804Z,9.28
2019-04-24T01:43:33.743Z,5.10
2019-04-24T01:46:08.330Z,5.85
2019-04-24T01:48:37.229Z,6.50
2019-04-24T01:51:05.594Z,6.65
2019-04-24T01:53:32.014Z,6.37
2019-04-24T01:56:03.047Z,6.60
2019-04-24T01:58:27.124Z,6.97
2019-04-24T02:03:31.922Z,6.20
2019-04-24T02:06:00.731Z,5.60
2019-04-24T02:08:40.816Z,5.58
2019-04-24T02:11:23.549Z,7.40
2019-04-24T02:13:32.973Z,7.35
2019-04-24T02:21:05.710Z,7.12
2019-04-24T02:23:42.281Z,7.70
2019-04-24T02:26:09.880Z,7.85
2019-04-24T02:34:00.634Z,7.70
2019-04-24T02:36:37.867Z,6.05
2019-04-24T02:47:14.944Z,7.15
2019-04-24T02:54:59.902Z,7.08
2019-04-24T02:57:10.219Z,7.67
2019-04-24T02:59:30.728Z,5.60
2019-04-24T03:02:13.477Z,6.47
2019-04-24T03:07:32.975Z,10.30
2019-04-24T03:10:02.341Z,5.45
2019-04-24T03:14:48.553Z,6.50
2019-04-24T03:17:29.393Z,5.15
2019-04-24T03:19:49.614Z,7.35
2019-04-24T03:24:55.775Z,8.67
2019-04-24T03:37:53.551Z,8.57
2019-04-24T03:43:07.994Z,8.28
2019-04-24T03:47:44.737Z,7.07
2019-04-24T03:55:12.323Z,6.60
2019-04-24T03:57:44.451Z,6.53
2019-04-24T04:13:11.964Z,6.70
2019-04-24T04:20:26.357Z,7.63
2019-04-24T04:25:55.450Z,6.10
2019-04-24T04:27:53.080Z,6.10
2019-04-24T04:30:51.979Z,10.55
2019-04-24T04:35:56.996Z,7.10
2019-04-24T04:43:53.787Z,9.00
2019-04-24T04:56:33.974Z,7.25
2019-04-24T04:59:21.338Z,7.97
2019-04-24T05:01:59.919Z,6.13
2019-04-24T05:09:51.099Z,9.17
2019-04-24T05:11:57.724Z,6.92
2019-04-24T05:14:47.385Z,9.50
2019-04-24T05:17:02.097Z,6.53
2019-04-24T05:24:18.112Z,8.00
2019-04-24T05:29:33.840Z,8.07
2019-04-24T05:31:53.035Z,8.57
2019-04-24T05:34:39.661Z,7.17
2019-04-24T05:37:17.838Z,7.35
2019-04-24T05:39:48.207Z,7.87
2019-04-24T05:42:40.816Z,8.33
2019-04-24T05:44:59.773Z,8.97
2019-04-24T05:47:44.032Z,8.93
2019-04-24T05:52:42.790Z,8.40
2019-04-24T05:55:39.609Z,10.58
2019-04-24T05:58:06.456Z,7.73
2019-04-24T06:00:37.830Z,8.65
2019-04-24T06:03:25.035Z,8.00
2019-04-24T06:05:33.363Z,8.07
2019-04-24T06:11:04.067Z,11.50
2019-04-24T06:13:50.368Z,8.70
2019-04-24T06:16:58.100Z,7.53
2019-04-24T06:22:05.092Z,7.60
2019-04-24T06:24:30.120Z,7.22
2019-04-24T06:26:58.324Z,6.37
2019-04-24T06:34:38.871Z,11.75
2019-04-24T06:50:15.431Z,10.47
2019-04-24T06:52:47.285Z,5.60
2019-04-24T06:55:10.185Z,10.37
2019-04-24T06:57:52.809Z,6.67
2019-04-24T07:05:59.926Z,9.03
2019-04-24T07:08:34.585Z,5.95
2019-04-24T07:11:34.368Z,7.13
2019-04-24T07:16:37.458Z,10.05
2019-04-24T07:19:08.250Z,7.40
2019-04-24T07:24:25.283Z,5.33
2019-04-24T07:26:43.832Z,4.70
2019-04-24T07:29:13.735Z,5.00
2019-04-24T07:32:23.691Z,5.10
2019-04-24T07:34:39.244Z,5.43
2019-04-24T07:37:28.974Z,5.40
2019-04-24T07:39:49.902Z,6.10
2019-04-24T07:42:16.651Z,5.42
2019-04-24T07:44:49.288Z,5.30
2019-04-24T07:47:16.887Z,6.15
2019-04-24T07:49:46.032Z,9.43
2019-04-24T07:52:27.062Z,2.87
2019-04-24T07:54:52.081Z,5.42
2019-04-24T07:57:18.542Z,4.37
2019-04-24T08:02:46.068Z,3.43
2019-04-24T08:07:47.487Z,5.35
2019-04-24T08:10:45.050Z,6.55
2019-04-24T08:13:07.944Z,10.93
2019-04-24T08:15:33.742Z,5.10
2019-04-24T08:20:46.739Z,3.85
2019-04-24T08:23:12.457Z,3.15
2019-04-24T08:28:07.347Z,3.12
2019-04-24T08:30:35.828Z,4.85
2019-04-24T08:33:07.251Z,2.05
2019-04-24T08:35:43.331Z,2.10
2019-04-24T08:38:33.191Z,4.03
2019-04-24T08:46:25.518Z,3.12
2019-04-24T08:58:48.927Z,5.30
2019-04-24T09:01:49.912Z,2.80
2019-04-24T09:04:07.932Z,3.37
2019-04-24T09:06:34.391Z,7.10
2019-04-24T09:09:04.548Z,11.83
2019-04-24T09:17:02.505Z,7.62
2019-04-24T09:19:29.822Z,7.60
2019-04-24T09:21:59.232Z,7.35
2019-04-24T09:32:54.780Z,5.28
2019-04-24T09:35:17.106Z,1.75
2019-04-24T09:38:02.052Z,1.77
2019-04-24T09:45:36.574Z,2.25
2019-04-24T09:48:08.404Z,4.12
2019-04-24T09:50:45.305Z,2.80
2019-04-24T09:55:51.577Z,4.58
2019-04-24T09:58:34.369Z,8.03
2019-04-24T10:01:20.429Z,1.32
2019-04-24T10:03:33.788Z,7.83
2019-04-24T10:11:06.317Z,5.42
2019-04-24T10:13:43.832Z,4.75
2019-04-24T10:16:32.885Z,3.52
2019-04-24T10:21:20.155Z,3.42
2019-04-24T10:24:01.148Z,3.00
2019-04-24T10:32:12.317Z,2.33
2019-04-24T10:34:47.699Z,2.67
2019-04-24T10:38:18.679Z,2.45
2019-04-24T10:40:53.751Z,3.87
2019-04-24T10:43:47.954Z,6.10
2019-04-24T10:54:49.093Z,2.70
2019-04-24T10:57:09.407Z,4.20
2019-04-24T11:10:45.672Z,2.62
2019-04-24T11:13:22.399Z,2.67
2019-04-24T11:19:19.971Z,3.83
2019-04-24T11:22:00.527Z,7.17
2019-04-24T11:24:25.742Z,3.58
2019-04-24T11:27:05.160Z,2.35
2019-04-24T11:29:48.927Z,5.28
2019-04-24T11:37:53.480Z,4.35
2019-04-24T11:45:52.768Z,5.85
2019-04-24T11:54:09.754Z,3.40
2019-04-24T11:57:21.931Z,2.17
2019-04-24T11:58:55.916Z,3.67
2019-04-24T12:02:19.935Z,3.42
2019-04-24T12:05:01.062Z,3.85
2019-04-24T12:07:24.398Z,3.27
2019-04-24T12:10:02.093Z,3.75
2019-04-24T12:12:32.705Z,2.40
2019-04-24T12:15:09.100Z,4.65
2019-04-24T12:17:50.128Z,3.83
2019-04-24T12:20:40.804Z,3.15
2019-04-24T12:22:51.986Z,3.25
2019-04-24T12:25:10.838Z,3.52
2019-04-24T12:30:22.334Z,3.50
2019-04-24T12:32:54.728Z,3.40
2019-04-24T12:35:47.903Z,4.00
2019-04-24T12:41:00.614Z,4.90
2019-04-24T12:43:42.076Z,3.10
2019-04-24T12:47:12.347Z,5.37
2019-04-24T12:49:43.211Z,6.60
2019-04-24T12:51:57.613Z,2.95
2019-04-24T12:54:31.619Z,2.95
2019-04-24T12:57:27.627Z,2.40
2019-04-24T12:59:55.051Z,2.60
2019-04-24T13:05:36.934Z,7.15
2019-04-24T13:10:39.310Z,3.92
2019-04-24T13:13:12.966Z,2.10
2019-04-24T13:15:58.370Z,5.25
2019-04-24T13:18:51.270Z,2.42
2019-04-24T13:20:37.441Z,5.00
2019-04-24T13:23:14.603Z,2.98
2019-04-24T13:26:09.661Z,2.55
2019-04-24T13:31:23.886Z,2.67
2019-04-24T13:38:51.286Z,4.30
2019-04-24T13:41:05.979Z,2.12
2019-04-24T13:51:08.524Z,4.22
2019-04-24T13:56:42.608Z,2.20
2019-04-24T13:58:41.496Z,2.33
2019-04-24T14:11:26.682Z,2.92
2019-04-24T14:12:05.659Z,3.12
2019-04-24T14:13:25.920Z,2.40
2019-04-24T14:16:06.348Z,2.85
2019-04-24T14:18:37.993Z,3.98
2019-04-24T14:21:06.345Z,3.10
2019-04-24T14:23:39.807Z,2.95
2019-04-24T14:28:40.445Z,2.42
2019-04-24T14:31:06.946Z,2.33
2019-04-24T14:36:20.205Z,1.90
2019-04-24T14:38:29.646Z,3.83
2019-04-24T14:41:01.443Z,4.45
2019-04-24T14:43:47.801Z,3.30
2019-04-24T14:48:36.092Z,12.10
2019-04-24T14:51:00.509Z,1.75
2019-04-24T14:53:43.793Z,2.02
2019-04-24T14:56:03.385Z,1.82
2019-04-24T14:58:28.608Z,1.67
2019-04-24T15:01:05.655Z,2.47
2019-04-24T15:03:21.056Z,2.77
2019-04-24T15:08:23.482Z,1.92
2019-04-24T15:10:56.660Z,3.25
2019-04-24T15:13:27.956Z,2.37
2019-04-24T15:18:19.480Z,3.70
2019-04-24T15:20:54.347Z,3.02
2019-04-24T15:23:25.934Z,1.25
2019-04-24T15:25:58.649Z,4.60
2019-04-24T15:28:22.017Z,1.25
2019-04-24T15:33:15.919Z,1.95
2019-04-24T15:36:00.887Z,1.15
2019-04-24T15:38:09.331Z,1.07
2019-04-24T15:40:52.505Z,1.20
2019-04-24T15:43:17.809Z,1.90
2019-04-24T15:45:47.142Z,1.90
2019-04-24T15:48:17.591Z,2.75
2019-04-24T15:50:56.677Z,2.55
2019-04-24T15:52:36.027Z,1.32
2019-04-24T15:55:02.989Z,0.70
2019-04-24T15:57:29.861Z,1.67
2019-04-24T16:00:18.855Z,5.47
2019-04-24T16:03:07.522Z,1.27
2019-04-24T16:04:55.528Z,1.37
2019-04-24T16:07:31.014Z,2.02
2019-04-24T16:10:01.326Z,2.30
2019-04-24T16:12:28.209Z,1.20
2019-04-24T16:15:24.083Z,1.77
2019-04-24T16:20:21.986Z,0.78
2019-04-24T16:23:00.754Z,1.30
2019-04-24T16:28:00.596Z,1.05
2019-04-24T16:32:50.539Z,3.15
2019-04-24T16:35:15.193Z,1.22
2019-04-24T16:43:13.129Z,1.47
2019-04-24T16:53:04.432Z,1.52
2019-04-24T16:55:30.005Z,1.30
2019-04-24T17:03:08.455Z,2.30
2019-04-24T17:05:26.622Z,2.00
2019-04-24T17:08:01.303Z,0.80
2019-04-24T17:10:22.283Z,1.75
2019-04-24T17:12:49.189Z,0.85
2019-04-24T17:15:22.653Z,1.82
2019-04-24T17:18:01.413Z,2.02
2019-04-24T17:20:43.973Z,0.50
2019-04-24T17:25:37.940Z,0.93
2019-04-24T17:28:23.771Z,0.75
2019-04-24T17:30:32.763Z,0.60
2019-04-24T17:33:01.732Z,0.88
2019-04-24T17:35:28.717Z,0.72
2019-04-24T17:37:28.419Z,0.45
2019-04-24T17:40:03.527Z,0.57
2019-04-24T17:42:47.326Z,0.50
2019-04-24T17:45:30.071Z,1.15
2019-04-24T17:48:02.770Z,0.72
2019-04-24T17:50:31.293Z,0.50
2019-04-24T17:53:11.818Z,0.60
2019-04-24T17:55:47.815Z,0.50
2019-04-24T17:57:51.618Z,0.60
2019-04-24T18:00:49.210Z,1.57
2019-04-24T18:03:16.386Z,1.77
2019-04-24T18:05:43.144Z,3.02
2019-04-24T18:08:11.993Z,0.70
2019-04-24T18:10:39.315Z,0.60
2019-04-24T18:13:06.711Z,0.47
2019-04-24T18:15:33.265Z,2.35
2019-04-24T18:18:00.048Z,1.15
2019-04-24T18:20:26.942Z,0.40
2019-04-24T18:22:53.556Z,0.68
2019-04-24T18:25:29.306Z,0.80
2019-04-24T18:27:55.960Z,0.50
2019-04-24T18:30:26.128Z,0.53
2019-04-24T18:32:52.971Z,2.20
2019-04-24T18:35:21.612Z,0.60
2019-04-24T18:37:48.339Z,1.32
2019-04-24T18:40:15.198Z,0.42
2019-04-24T18:42:41.893Z,0.60
2019-04-24T18:45:08.504Z,1.47
2019-04-24T18:47:35.080Z,0.40
2019-04-24T18:50:02.436Z,0.80
2019-04-24T18:52:29.211Z,0.47
2019-04-24T18:54:55.909Z,0.50
2019-04-24T18:57:22.500Z,1.10
2019-04-24T18:59:49.182Z,0.35
2019-04-24T19:02:16.186Z,0.70
2019-04-24T19:04:43.440Z,0.60
2019-04-24T19:07:10.884Z,0.70
2019-04-24T19:09:38.043Z,0.55
2019-04-24T19:12:05.240Z,0.65
2019-04-24T19:14:32.961Z,0.40
2019-04-24T19:16:59.837Z,0.42
2019-04-24T19:19:26.554Z,0.62
2019-04-24T19:21:53.170Z,0.62
2019-04-24T19:24:19.806Z,0.50
2019-04-24T19:26:46.402Z,0.60
2019-04-24T19:29:13.519Z,0.53
2019-04-24T19:31:40.196Z,1.20
2019-04-24T19:34:06.807Z,0.40
2019-04-24T19:36:33.485Z,2.92
2019-04-24T19:39:01.978Z,0.60
2019-04-24T19:41:28.593Z,0.70
2019-04-24T19:43:55.530Z,0.70
2019-04-24T19:46:23.570Z,0.90
2019-04-24T19:48:51.686Z,1.80
2019-04-24T19:51:18.537Z,1.57
2019-04-24T19:53:45.153Z,0.60
2019-04-24T19:56:12.712Z,0.47
2019-04-24T19:58:40.217Z,0.60
2019-04-24T20:01:06.916Z,0.40
2019-04-24T20:03:33.748Z,0.50
2019-04-24T20:06:02.006Z,0.40
2019-04-24T20:08:28.895Z,0.60
2019-04-24T20:11:09.936Z,1.30
2019-04-24T20:13:36.632Z,0.88
2019-04-24T20:16:03.804Z,0.40
2019-04-24T20:18:31.987Z,0.78
2019-04-24T20:20:59.374Z,1.30
2019-04-24T20:23:34.056Z,0.45
2019-04-24T20:25:54.485Z,0.60
2019-04-24T20:28:22.402Z,0.40
2019-04-24T20:30:49.178Z,0.55
2019-04-24T20:33:16.137Z,0.75
2019-04-24T20:35:42.759Z,0.47
2019-04-24T20:38:09.475Z,0.60
2019-04-24T20:40:36.231Z,2.08
2019-04-24T20:43:03.961Z,0.50
2019-04-24T20:45:31.568Z,0.55
2019-04-24T20:47:58.283Z,0.50
2019-04-24T20:50:24.888Z,0.50
2019-04-24T20:52:51.539Z,0.40
2019-04-24T20:55:18.645Z,0.40
2019-04-24T20:57:45.322Z,0.60
2019-04-24T21:00:12.100Z,0.35
2019-04-24T21:02:41.239Z,0.40
2019-04-24T21:05:07.817Z,0.57
2019-04-24T21:07:52.495Z,0.60
2019-04-24T21:10:22.905Z,0.50
2019-04-24T21:12:49.594Z,0.40
2019-04-24T21:15:20.344Z,0.37
2019-04-24T21:17:47.077Z,1.35
2019-04-24T21:20:14.130Z,1.35
2019-04-24T21:22:40.725Z,0.40
2019-04-24T21:25:07.341Z,0.60
2019-04-24T21:27:33.959Z,0.47
2019-04-24T21:30:01.013Z,0.50
2019-04-24T21:32:27.553Z,0.70
2019-04-24T21:34:54.173Z,0.50
2019-04-24T21:37:21.088Z,0.85
2019-04-24T21:39:48.476Z,0.30
2019-04-24T21:42:15.113Z,0.50
2019-04-24T21:44:42.084Z,0.45
2019-04-24T21:47:08.725Z,0.40
2019-04-24T21:49:35.302Z,0.40
2019-04-24T21:52:02.030Z,0.70
2019-04-24T21:54:28.764Z,0.30
2019-04-24T21:56:55.442Z,0.60
2019-04-24T21:59:23.472Z,0.40
2019-04-24T22:02:08.555Z,0.40
2019-04-24T22:04:57.724Z,0.40
2019-04-24T22:07:27.929Z,0.60
2019-04-24T22:09:54.739Z,0.30
2019-04-24T22:12:21.317Z,0.40
2019-04-24T22:14:47.888Z,0.40
2019-04-24T22:17:14.828Z,0.40
2019-04-24T22:19:41.536Z,0.68
2019-04-24T22:22:18.620Z,0.35
2019-04-24T22:25:03.327Z,0.40
2019-04-24T22:27:34.292Z,0.40
2019-04-24T22:30:00.909Z,0.30
2019-04-24T22:32:33.720Z,0.40
2019-04-24T22:35:02.515Z,0.40
2019-04-24T22:37:29.210Z,0.45
2019-04-24T22:40:16.856Z,0.30
2019-04-24T22:42:42.982Z,3.00
2019-04-24T22:45:10.287Z,0.40
2019-04-24T22:47:36.863Z,0.37
2019-04-24T22:50:03.477Z,0.65
2019-04-24T22:52:32.616Z,0.40
2019-04-24T22:54:58.820Z,0.23
2019-04-24T22:57:25.632Z,0.72
2019-04-24T22:59:52.390Z,0.50
2019-04-24T23:02:19.106Z,0.55
2019-04-24T23:04:45.752Z,1.47
2019-04-24T23:07:12.852Z,0.60
2019-04-24T23:09:39.732Z,0.27
2019-04-24T23:12:06.303Z,0.98
2019-04-24T23:14:33.007Z,0.30
2019-04-24T23:16:59.875Z,0.57
2019-04-24T23:19:26.524Z,0.50
2019-04-24T23:22:19.065Z,0.50
2019-04-24T23:24:54.755Z,2.17
2019-04-24T23:27:38.714Z,0.60
2019-04-24T23:30:24.557Z,1.30
2019-04-24T23:32:57.040Z,0.55
2019-04-24T23:35:25.877Z,1.55
2019-04-24T23:37:52.766Z,0.60
2019-04-24T23:40:19.347Z,0.75
2019-04-24T23:42:45.941Z,0.55
2019-04-24T23:45:13.511Z,0.93
2019-04-24T23:47:41.566Z,0.62
2019-04-24T23:50:08.697Z,0.90
2019-04-24T23:52:36.060Z,0.73
2019-04-24T23:55:07.025Z,0.70
2019-04-24T23:57:31.125Z,0.83
2019-04-24T23:59:57.698Z,1.47
